createdAt,value
2023-03-20T00:02:29.381Z,21.52
2023-03-20T00:04:59.873Z,17.73
2023-03-20T00:07:31.120Z,18.75
2023-03-20T00:10:02.574Z,15.98
2023-03-20T00:12:34.821Z,18.38
2023-03-20T00:15:07.240Z,17.20
2023-03-20T00:17:37.525Z,18.90
2023-03-20T00:20:09.288Z,18.80
2023-03-20T00:22:40.435Z,22.98
2023-03-20T00:25:28.224Z,21.77
2023-03-20T00:28:00.311Z,25.13
2023-03-20T00:30:34.554Z,21.15
2023-03-20T00:33:06.353Z,20.73
2023-03-20T00:35:36.959Z,19.73
2023-03-20T00:38:08.311Z,17.25
2023-03-20T00:40:39.249Z,19.00
2023-03-20T00:43:13.893Z,18.55
2023-03-20T00:45:47.178Z,18.10
2023-03-20T00:48:20.433Z,13.02
2023-03-20T00:50:52.817Z,12.07
2023-03-20T00:53:24.790Z,10.40
2023-03-20T00:55:55.092Z,12.70
2023-03-20T00:58:25.881Z,9.00
2023-03-20T01:00:56.940Z,22.15
2023-03-20T01:03:31.479Z,29.50
2023-03-20T01:06:01.744Z,34.47
2023-03-20T01:08:31.880Z,23.40
2023-03-20T01:11:02.356Z,36.83
2023-03-20T01:13:35.357Z,41.25
2023-03-20T01:16:06.477Z,36.53
2023-03-20T01:18:37.360Z,31.85
2023-03-20T01:21:09.520Z,27.75
2023-03-20T01:23:40.725Z,27.58
2023-03-20T01:26:39.528Z,27.38
2023-03-20T01:29:24.985Z,21.80
2023-03-20T01:31:57.454Z,12.35
2023-03-20T01:34:29.426Z,10.50
2023-03-20T01:37:01.786Z,9.77
2023-03-20T01:39:38.549Z,9.55
2023-03-20T01:42:09.923Z,10.85
2023-03-20T01:44:40.911Z,10.73
2023-03-20T01:47:20.654Z,9.73
2023-03-20T01:50:24.681Z,10.32
2023-03-20T01:53:21.243Z,10.32
2023-03-20T01:56:00.361Z,9.35
2023-03-20T01:58:45.693Z,8.43
2023-03-20T02:01:17.444Z,8.20
2023-03-20T02:03:54.556Z,8.45
2023-03-20T02:06:51.103Z,7.03
2023-03-20T02:09:32.422Z,6.65
2023-03-20T02:12:05.088Z,5.50
2023-03-20T02:14:36.953Z,5.32
2023-03-20T02:17:18.201Z,5.68
2023-03-20T02:20:18.795Z,5.40
2023-03-20T02:26:06.852Z,4.78
2023-03-20T02:29:02.938Z,6.35
2023-03-20T02:32:14.399Z,21.48
2023-03-20T02:35:18.945Z,28.50
2023-03-20T02:37:56.408Z,21.92
2023-03-20T02:40:45.253Z,21.73
2023-03-20T02:43:53.592Z,20.95
2023-03-20T02:46:33.754Z,21.98
2023-03-20T02:49:32.296Z,20.48
2023-03-20T02:52:47.784Z,18.67
2023-03-20T02:55:36.927Z,17.90
2023-03-20T02:58:38.940Z,21.02
2023-03-20T03:01:20.114Z,22.80
2023-03-20T03:04:04.382Z,25.73
2023-03-20T03:06:38.415Z,20.35
2023-03-20T03:09:30.094Z,19.02
2023-03-20T03:12:17.987Z,21.10
2023-03-20T03:15:03.115Z,21.23
2023-03-20T03:17:37.007Z,19.58
2023-03-20T03:20:16.757Z,19.80
2023-03-20T03:22:48.984Z,21.17
2023-03-20T03:25:21.394Z,21.73
2023-03-20T03:28:18.015Z,24.67
2023-03-20T03:30:49.353Z,28.05
2023-03-20T03:33:36.312Z,27.98
2023-03-20T03:36:27.621Z,31.80
2023-03-20T03:39:04.383Z,31.60
2023-03-20T03:41:41.662Z,29.60
2023-03-20T03:44:25.966Z,33.20
2023-03-20T03:47:24.197Z,34.00
2023-03-20T03:50:04.267Z,30.92
2023-03-20T03:52:37.150Z,30.98
2023-03-20T03:55:15.993Z,29.98
2023-03-20T03:58:06.383Z,27.45
2023-03-20T04:00:37.455Z,27.05
2023-03-20T04:03:10.019Z,27.20
2023-03-20T04:05:46.744Z,25.30
2023-03-20T04:08:18.703Z,25.90
2023-03-20T04:10:53.843Z,25.70
2023-03-20T04:13:25.179Z,26.75
2023-03-20T04:15:56.183Z,36.22
2023-03-20T04:18:30.173Z,32.05
2023-03-20T04:21:01.287Z,26.40
2023-03-20T04:23:31.600Z,24.58
2023-03-20T04:26:04.767Z,21.98
2023-03-20T04:28:38.941Z,19.83
2023-03-20T04:31:27.471Z,21.48
2023-03-20T04:34:09.623Z,21.30
2023-03-20T04:36:47.706Z,20.90
2023-03-20T04:39:19.567Z,21.58
2023-03-20T04:41:49.821Z,24.85
2023-03-20T04:44:20.098Z,21.73
2023-03-20T04:46:52.026Z,20.60
2023-03-20T04:49:23.871Z,17.33
2023-03-20T04:51:56.320Z,15.73
2023-03-20T04:54:39.676Z,14.30
2023-03-20T04:57:09.903Z,12.75
2023-03-20T04:59:41.535Z,12.70
2023-03-20T05:02:17.757Z,12.27
2023-03-20T05:04:48.726Z,10.82
2023-03-20T05:07:19.507Z,10.68
2023-03-20T05:10:12.060Z,10.65
2023-03-20T05:13:05.941Z,11.52
2023-03-20T05:15:59.893Z,10.20
2023-03-20T05:18:49.281Z,9.88
2023-03-20T05:21:45.791Z,12.07
2023-03-20T05:24:17.827Z,14.65
2023-03-20T05:27:14.565Z,13.85
2023-03-20T05:29:57.953Z,15.63
2023-03-20T05:32:55.976Z,19.20
2023-03-20T05:35:32.305Z,20.52
2023-03-20T05:38:30.595Z,35.17
2023-03-20T05:41:13.429Z,30.40
2023-03-20T05:44:03.002Z,33.05
2023-03-20T05:46:51.424Z,31.80
2023-03-20T05:49:53.790Z,30.58
2023-03-20T05:52:51.352Z,30.35
2023-03-20T05:55:46.135Z,30.30
2023-03-20T05:58:38.021Z,26.23
2023-03-20T06:01:43.391Z,19.38
2023-03-20T06:04:37.108Z,13.73
2023-03-20T06:07:28.299Z,13.27
2023-03-20T06:10:05.697Z,10.90
2023-03-20T06:12:37.472Z,9.80
2023-03-20T06:15:09.790Z,9.65
2023-03-20T06:17:44.449Z,9.43
2023-03-20T06:20:17.609Z,9.30
2023-03-20T06:22:49.764Z,9.75
2023-03-20T06:25:21.890Z,9.90
2023-03-20T06:27:54.756Z,8.82
2023-03-20T06:30:26.743Z,10.25
2023-03-20T06:32:58.383Z,8.32
2023-03-20T06:35:37.881Z,8.02
2023-03-20T06:38:09.061Z,7.07
2023-03-20T06:40:40.993Z,5.18
2023-03-20T06:43:13.760Z,5.18
2023-03-20T06:45:51.896Z,5.10
2023-03-20T06:48:29.744Z,4.47
2023-03-20T06:51:00.880Z,4.00
2023-03-20T06:53:39.256Z,3.17
2023-03-20T06:56:16.258Z,3.40
2023-03-20T06:58:48.254Z,2.70
2023-03-20T07:01:21.993Z,2.20
2023-03-20T07:03:53.812Z,2.58
2023-03-20T07:06:29.505Z,1.75
2023-03-20T07:09:00.158Z,2.10
2023-03-20T07:11:31.598Z,2.20
2023-03-20T07:14:04.035Z,2.20
2023-03-20T07:16:50.831Z,2.05
2023-03-20T07:19:47.166Z,1.45
2023-03-20T07:22:30.436Z,1.88
2023-03-20T07:25:31.769Z,1.88
2023-03-20T07:28:07.082Z,1.55
2023-03-20T07:30:40.670Z,1.83
2023-03-20T07:33:11.939Z,1.92
2023-03-20T07:35:42.896Z,1.70
2023-03-20T07:38:14.010Z,1.63
2023-03-20T07:40:56.572Z,1.70
2023-03-20T07:43:27.406Z,1.40
2023-03-20T07:46:01.409Z,1.52
2023-03-20T07:48:32.112Z,1.60
2023-03-20T07:51:03.168Z,1.42
2023-03-20T07:53:35.136Z,1.70
2023-03-20T07:56:07.375Z,1.70
2023-03-20T07:58:39.461Z,2.00
2023-03-20T08:01:09.882Z,1.67
2023-03-20T08:03:42.829Z,1.90
2023-03-20T08:06:13.253Z,1.52
2023-03-20T08:08:45.451Z,1.63
2023-03-20T08:11:15.878Z,1.58
2023-03-20T08:13:47.322Z,1.52
2023-03-20T08:16:17.476Z,1.90
2023-03-20T08:18:47.817Z,1.77
2023-03-20T08:21:20.214Z,1.50
2023-03-20T08:23:51.377Z,1.65
2023-03-20T08:26:22.565Z,1.80
2023-03-20T08:28:53.167Z,1.58
2023-03-20T08:31:23.609Z,1.92
2023-03-20T08:33:54.368Z,1.70
2023-03-20T08:36:24.889Z,1.58
2023-03-20T08:38:56.340Z,1.70
2023-03-20T08:41:26.781Z,1.80
2023-03-20T08:43:57.831Z,1.67
2023-03-20T08:46:32.159Z,1.67
2023-03-20T08:49:03.633Z,1.80
2023-03-20T08:51:35.716Z,1.48
2023-03-20T08:54:06.031Z,1.70
2023-03-20T08:56:39.885Z,1.50
2023-03-20T08:59:12.441Z,1.45
2023-03-20T09:01:49.796Z,1.63
2023-03-20T09:04:22.090Z,1.50
2023-03-20T09:06:53.127Z,1.70
2023-03-20T09:09:31.485Z,1.55
2023-03-20T09:12:02.042Z,1.40
2023-03-20T09:14:33.150Z,1.45
2023-03-20T09:17:04.321Z,1.45
2023-03-20T09:19:35.168Z,1.60
2023-03-20T09:22:07.027Z,2.10
2023-03-20T09:24:38.432Z,1.60
2023-03-20T09:27:10.619Z,1.42
2023-03-20T09:29:41.662Z,1.80
2023-03-20T09:32:17.508Z,1.60
2023-03-20T09:34:49.265Z,1.50
2023-03-20T09:37:20.634Z,1.70
2023-03-20T09:39:51.838Z,1.80
2023-03-20T09:42:41.142Z,1.80
2023-03-20T09:45:39.456Z,1.85
2023-03-20T09:48:56.661Z,1.88
2023-03-20T09:51:34.482Z,2.00
2023-03-20T09:54:31.196Z,1.70
2023-03-20T09:57:05.592Z,1.60
2023-03-20T09:59:38.371Z,1.63
2023-03-20T10:02:19.187Z,1.70
2023-03-20T10:04:50.301Z,1.63
2023-03-20T10:07:21.477Z,1.58
2023-03-20T10:09:53.247Z,1.98
2023-03-20T10:12:53.214Z,1.60
2023-03-20T10:15:58.298Z,1.90
2023-03-20T10:18:37.058Z,1.90
2023-03-20T10:21:16.385Z,1.85
2023-03-20T10:24:01.055Z,1.98
2023-03-20T10:26:35.552Z,2.00
2023-03-20T10:29:44.362Z,1.95
2023-03-20T10:32:19.265Z,2.00
2023-03-20T10:35:21.948Z,2.10
2023-03-20T10:38:29.436Z,1.92
2023-03-20T10:41:02.008Z,2.35
2023-03-20T10:43:39.085Z,2.10
2023-03-20T10:46:37.891Z,2.22
2023-03-20T10:49:33.698Z,1.85
2023-03-20T10:52:18.502Z,2.42
2023-03-20T10:55:06.327Z,1.95
2023-03-20T10:57:47.833Z,12.93
2023-03-20T11:00:29.915Z,12.65
2023-03-20T11:03:01.811Z,9.77
2023-03-20T11:05:36.961Z,10.55
2023-03-20T11:08:28.708Z,9.18
2023-03-20T11:11:03.814Z,9.85
2023-03-20T11:16:26.717Z,8.55
2023-03-20T11:18:59.902Z,8.20
2023-03-20T11:21:33.913Z,5.60
2023-03-20T11:24:06.186Z,6.72
2023-03-20T11:26:46.032Z,7.75
2023-03-20T11:29:38.742Z,5.60
2023-03-20T11:32:31.561Z,7.57
2023-03-20T11:35:18.240Z,10.70
2023-03-20T11:38:00.078Z,11.70
2023-03-20T11:40:38.569Z,10.35
2023-03-20T11:43:17.210Z,7.68
2023-03-20T11:45:53.824Z,7.10
2023-03-20T11:48:37.799Z,11.45
2023-03-20T11:51:17.528Z,7.38
2023-03-20T11:54:22.845Z,7.93
2023-03-20T11:57:08.594Z,6.32
2023-03-20T11:59:43.824Z,1.70
2023-03-20T12:02:34.000Z,1.30
2023-03-20T12:05:25.405Z,1.48
2023-03-20T12:08:10.773Z,1.85
2023-03-20T12:10:46.896Z,2.00
2023-03-20T12:13:25.069Z,1.60
2023-03-20T12:16:14.447Z,1.63
2023-03-20T12:22:32.999Z,1.70
2023-03-20T12:25:29.569Z,1.40
2023-03-20T12:28:33.511Z,1.48
2023-03-20T12:31:26.615Z,1.30
2023-03-20T12:34:28.557Z,1.42
2023-03-20T12:37:11.846Z,1.23
2023-03-20T12:40:05.130Z,1.33
2023-03-20T12:43:01.577Z,1.67
2023-03-20T12:46:20.332Z,1.30
2023-03-20T12:49:10.299Z,6.55
2023-03-20T12:52:21.292Z,4.22
2023-03-20T12:55:33.533Z,6.75
2023-03-20T12:58:40.559Z,7.68
2023-03-20T13:02:19.158Z,7.78
2023-03-20T13:05:05.627Z,6.45
2023-03-20T13:08:04.390Z,6.68
2023-03-20T13:10:59.495Z,5.65
2023-03-20T13:13:46.369Z,6.18
2023-03-20T13:17:13.160Z,5.88
2023-03-20T13:20:13.145Z,6.25
2023-03-20T13:22:55.643Z,8.27
2023-03-20T13:26:06.481Z,8.85
2023-03-20T13:28:46.624Z,6.88
2023-03-20T13:31:51.239Z,5.55
2023-03-20T13:34:33.402Z,6.50
2023-03-20T13:40:39.755Z,4.20
2023-03-20T13:43:51.729Z,4.78
2023-03-20T13:46:28.213Z,4.72
2023-03-20T13:49:15.382Z,4.88
2023-03-20T13:51:59.492Z,4.40
2023-03-20T13:54:46.630Z,5.05
2023-03-20T13:57:44.229Z,3.65
2023-03-20T14:00:42.457Z,4.65
2023-03-20T14:03:31.715Z,2.85
2023-03-20T14:06:03.686Z,4.10
2023-03-20T14:08:39.097Z,4.45
2023-03-20T14:11:38.054Z,3.53
2023-03-20T14:14:33.668Z,5.22
2023-03-20T14:17:19.569Z,4.60
2023-03-20T14:19:53.050Z,6.00
2023-03-20T14:22:30.920Z,5.38
2023-03-20T14:25:07.026Z,4.00
2023-03-20T14:27:55.987Z,4.60
2023-03-20T14:30:37.395Z,3.95
2023-03-20T14:33:16.245Z,6.45
2023-03-20T14:36:13.093Z,5.63
2023-03-20T14:39:09.958Z,4.32
2023-03-20T14:41:40.904Z,4.28
2023-03-20T14:44:49.277Z,4.88
2023-03-20T14:47:42.279Z,4.80
2023-03-20T14:50:26.336Z,4.57
2023-03-20T14:53:26.246Z,4.43
2023-03-20T14:56:15.949Z,3.97
2023-03-20T14:58:58.949Z,4.10
2023-03-20T15:01:59.025Z,4.53
2023-03-20T15:04:38.531Z,5.63
2023-03-20T15:07:23.990Z,4.00
2023-03-20T15:10:03.635Z,4.10
2023-03-20T15:12:41.611Z,4.45
2023-03-20T15:15:30.560Z,4.47
2023-03-20T15:18:15.870Z,4.40
2023-03-20T15:20:51.048Z,4.57
2023-03-20T15:23:24.995Z,5.50
2023-03-20T15:25:58.335Z,4.50
2023-03-20T15:28:31.072Z,4.00
2023-03-20T15:31:03.273Z,4.60
2023-03-20T15:33:43.249Z,4.40
2023-03-20T15:36:19.741Z,4.68
2023-03-20T15:38:51.456Z,4.22
2023-03-20T15:41:36.732Z,5.15
2023-03-20T15:44:35.624Z,4.30
2023-03-20T15:47:24.270Z,5.68
2023-03-20T15:50:04.867Z,4.72
2023-03-20T15:52:56.502Z,4.78
2023-03-20T15:55:30.884Z,7.25
2023-03-20T15:58:04.552Z,4.65
2023-03-20T16:00:47.535Z,5.07
2023-03-20T16:03:23.266Z,3.60
2023-03-20T16:08:38.435Z,3.15
2023-03-20T16:11:22.011Z,4.47
2023-03-20T16:13:56.219Z,4.40
2023-03-20T16:16:29.229Z,5.43
2023-03-20T16:19:00.215Z,3.70
2023-03-20T16:24:38.587Z,4.15
2023-03-20T16:27:14.369Z,4.20
2023-03-20T16:29:46.791Z,4.07
2023-03-20T16:32:42.675Z,4.40
2023-03-20T16:35:35.322Z,3.42
2023-03-20T16:38:28.961Z,3.83
2023-03-20T16:41:24.255Z,3.80
2023-03-20T16:44:01.145Z,4.22
2023-03-20T16:46:43.044Z,4.07
2023-03-20T16:49:39.242Z,4.85
2023-03-20T16:52:16.997Z,3.80
2023-03-20T16:54:49.929Z,5.85
2023-03-20T17:01:25.702Z,4.93
2023-03-20T17:04:01.502Z,3.60
2023-03-20T17:06:39.288Z,3.53
2023-03-20T17:09:25.101Z,4.10
2023-03-20T17:12:15.649Z,6.10
2023-03-20T17:14:50.893Z,5.80
2023-03-20T17:17:40.596Z,4.75
2023-03-20T17:20:24.500Z,5.18
2023-03-20T17:22:55.179Z,5.25
2023-03-20T17:25:26.187Z,6.53
2023-03-20T17:28:01.246Z,4.45
2023-03-20T17:30:32.889Z,4.93
2023-03-20T17:33:03.598Z,5.07
2023-03-20T17:35:35.009Z,3.85
2023-03-20T17:38:05.569Z,4.43
2023-03-20T17:40:38.174Z,4.90
2023-03-20T17:43:15.533Z,4.03
2023-03-20T17:45:48.005Z,3.88
2023-03-20T17:48:23.316Z,4.88
2023-03-20T17:50:53.705Z,6.22
2023-03-20T17:53:27.604Z,4.85
2023-03-20T17:56:01.952Z,5.30
2023-03-20T17:58:34.918Z,5.60
2023-03-20T18:01:08.742Z,4.80
2023-03-20T18:03:40.274Z,4.30
2023-03-20T18:06:34.151Z,6.22
2023-03-20T18:09:07.777Z,6.10
2023-03-20T18:11:42.933Z,7.53
2023-03-20T18:14:19.939Z,6.38
2023-03-20T18:16:50.245Z,6.95
2023-03-20T18:19:28.652Z,8.23
2023-03-20T18:22:24.646Z,6.97
2023-03-20T18:24:59.376Z,6.05
2023-03-20T18:27:34.008Z,5.95
2023-03-20T18:30:11.259Z,7.40
2023-03-20T18:32:43.210Z,6.35
2023-03-20T18:35:16.874Z,6.75
2023-03-20T18:37:51.625Z,8.80
2023-03-20T18:40:40.390Z,9.18
2023-03-20T18:43:13.117Z,6.05
2023-03-20T18:45:47.871Z,7.38
2023-03-20T18:48:18.926Z,6.45
2023-03-20T18:50:59.292Z,7.22
2023-03-20T18:53:32.202Z,4.45
2023-03-20T18:56:09.307Z,6.20
2023-03-20T18:58:40.846Z,5.00
2023-03-20T19:01:15.756Z,5.68
2023-03-20T19:03:48.116Z,5.90
2023-03-20T19:06:24.548Z,6.78
2023-03-20T19:08:56.044Z,5.82
2023-03-20T19:11:27.405Z,6.93
2023-03-20T19:13:59.000Z,6.85
2023-03-20T19:16:33.885Z,5.35
2023-03-20T19:19:07.672Z,4.90
2023-03-20T19:21:38.339Z,4.20
2023-03-20T19:24:09.591Z,3.83
2023-03-20T19:26:40.941Z,4.20
2023-03-20T19:29:16.274Z,4.55
2023-03-20T19:34:51.891Z,3.83
2023-03-20T19:37:15.031Z,4.75
2023-03-20T19:39:50.193Z,2.85
2023-03-20T19:42:50.950Z,4.90
2023-03-20T19:45:17.903Z,4.00
2023-03-20T19:47:49.565Z,4.85
2023-03-20T19:50:41.609Z,4.20
2023-03-20T19:53:19.031Z,3.50
2023-03-20T19:55:51.105Z,4.45
2023-03-20T19:58:23.225Z,4.97
2023-03-20T20:00:57.734Z,4.70
2023-03-20T20:03:42.046Z,5.25
2023-03-20T20:06:15.801Z,4.63
2023-03-20T20:08:49.273Z,7.22
